Time;durP1;ratioP1;P1;durP2;ratioP2;P2;SDS_P1;SDS_P2;PMS_P1;PMS_P2;Temp;Humidity;BMP_temperature;BMP_pressure;BME280_temperature;BME280_humidity;BME280_pressure;Samples;Min_cycle;Max_cycle;Signal;HPM_P1;HPM_P2
2024/04/19 00:02:09;;;;;;;9.18;5.50;;;;;;;;;;5451745;26;20430;-77
2024/04/19 00:04:35;;;;;;;11.80;5.22;;;;;;;;;;5453308;26;20002;-78
2024/04/19 00:07:01;;;;;;;16.38;6.30;;;;;;;;;;5451929;26;20002;-77
2024/04/19 00:09:27;;;;;;;13.57;6.45;;;;;;;;;;5451256;26;19999;-77
2024/04/19 00:11:53;;;;;;;12.55;6.25;;;;;;;;;;5453221;26;19999;-77
2024/04/19 00:14:19;;;;;;;12.52;6.40;;;;;;;;;;5452609;26;20005;-77
2024/04/19 00:16:45;;;;;;;12.35;7.53;;;;;;;;;;5450262;26;20003;-77
2024/04/19 00:19:11;;;;;;;13.60;7.40;;;;;;;;;;5451144;26;20466;-77
2024/04/19 00:21:37;;;;;;;14.63;7.90;;;;;;;;;;5452830;26;20002;-78
2024/04/19 00:24:03;;;;;;;17.50;8.50;;;;;;;;;;5451233;26;20445;-78
2024/04/19 00:26:29;;;;;;;15.15;7.40;;;;;;;;;;5450774;26;20006;-78
2024/04/19 00:28:55;;;;;;;16.33;7.10;;;;;;;;;;5452749;26;20015;-78
2024/04/19 00:31:21;;;;;;;16.45;8.15;;;;;;;;;;5450792;26;20009;-78
2024/04/19 00:33:48;;;;;;;13.45;8.13;;;;;;;;;;5451103;26;19999;-78
2024/04/19 00:36:14;;;;;;;15.52;7.82;;;;;;;;;;5451031;26;20001;-78
2024/04/19 00:38:40;;;;;;;12.38;6.53;;;;;;;;;;5450985;26;19999;-78
2024/04/19 00:41:06;;;;;;;14.48;7.65;;;;;;;;;;5450971;26;19999;-78
2024/04/19 00:43:32;;;;;;;12.38;7.88;;;;;;;;;;5450498;26;20013;-79
2024/04/19 00:45:58;;;;;;;14.90;7.65;;;;;;;;;;5451309;26;20003;-80
2024/04/19 00:48:25;;;;;;;13.45;7.97;;;;;;;;;;5450547;26;19999;-77
2024/04/19 00:50:58;;;;;;;15.52;9.13;;;;;;;;;;5452723;26;19999;-79
2024/04/19 00:53:26;;;;;;;15.35;8.50;;;;;;;;;;5452692;26;20017;-80
2024/04/19 00:55:53;;;;;;;15.00;8.57;;;;;;;;;;5450924;26;20036;-79
2024/04/19 00:58:19;;;;;;;15.90;9.63;;;;;;;;;;5452643;26;20003;-79
2024/04/19 01:00:45;;;;;;;13.13;8.23;;;;;;;;;;5452359;26;19999;-77
2024/04/19 01:03:12;;;;;;;18.10;11.48;;;;;;;;;;5451360;26;20018;-77
2024/04/19 01:05:39;;;;;;;16.92;9.77;;;;;;;;;;5452451;26;20031;-77
2024/04/19 01:08:05;;;;;;;16.67;10.27;;;;;;;;;;5450806;26;19999;-77
2024/04/19 01:10:32;;;;;;;19.20;12.25;;;;;;;;;;5450559;26;19998;-77
2024/04/19 01:12:59;;;;;;;20.48;12.10;;;;;;;;;;5450536;26;20014;-77
2024/04/19 01:15:25;;;;;;;18.85;10.27;;;;;;;;;;5452263;26;20122;-77
2024/04/19 01:17:51;;;;;;;18.35;11.25;;;;;;;;;;5450415;26;20026;-77
2024/04/19 01:20:17;;;;;;;19.13;10.02;;;;;;;;;;5450528;26;20014;-77
2024/04/19 01:22:45;;;;;;;15.05;10.35;;;;;;;;;;5450166;26;19999;-77
2024/04/19 01:25:37;;;;;;;20.60;11.40;;;;;;;;;;5452256;26;20010;-77
2024/04/19 01:28:10;;;;;;;16.17;10.15;;;;;;;;;;5451720;26;20002;-77
2024/04/19 01:30:38;;;;;;;15.93;10.25;;;;;;;;;;5450794;26;20003;-77
2024/04/19 01:33:04;;;;;;;19.40;12.13;;;;;;;;;;5440189;26;20011;-77
2024/04/19 01:35:30;;;;;;;13.30;8.70;;;;;;;;;;5452766;26;20010;-77
2024/04/19 01:37:57;;;;;;;13.68;9.27;;;;;;;;;;5446224;26;20075;-78
2024/04/19 01:40:23;;;;;;;17.80;9.50;;;;;;;;;;5416274;26;20018;-78
2024/04/19 01:42:49;;;;;;;15.38;9.60;;;;;;;;;;5416135;26;20504;-80
2024/04/19 01:45:15;;;;;;;15.32;8.80;;;;;;;;;;5414493;26;20004;-79
2024/04/19 01:47:41;;;;;;;9.60;6.80;;;;;;;;;;5413663;26;20327;-79
2024/04/19 01:50:07;;;;;;;16.65;7.88;;;;;;;;;;5414204;26;20080;-79
2024/04/19 01:52:34;;;;;;;14.23;7.03;;;;;;;;;;5415855;26;20512;-79
2024/04/19 01:55:00;;;;;;;13.82;7.40;;;;;;;;;;5414618;26;20045;-79
2024/04/19 01:57:26;;;;;;;11.52;6.97;;;;;;;;;;5413965;26;20003;-78
2024/04/19 01:59:52;;;;;;;17.95;7.65;;;;;;;;;;5416342;26;20011;-79
2024/04/19 02:02:19;;;;;;;14.65;7.80;;;;;;;;;;5416327;26;20000;-78
2024/04/19 02:04:47;;;;;;;17.63;8.05;;;;;;;;;;5413767;26;20000;-78
2024/04/19 02:07:13;;;;;;;12.90;7.00;;;;;;;;;;5415833;26;20014;-78
2024/04/19 02:09:39;;;;;;;11.60;6.28;;;;;;;;;;5415751;26;20015;-79
2024/04/19 02:12:05;;;;;;;12.75;8.60;;;;;;;;;;5414319;26;20003;-79
2024/04/19 02:14:31;;;;;;;18.50;9.45;;;;;;;;;;5413563;26;20679;-79
2024/04/19 02:16:58;;;;;;;15.50;9.90;;;;;;;;;;5416179;26;20015;-82
2024/04/19 02:19:24;;;;;;;17.75;10.65;;;;;;;;;;5415754;26;20047;-81
2024/04/19 02:21:50;;;;;;;19.27;10.38;;;;;;;;;;5415485;26;20014;-81
2024/04/19 02:24:16;;;;;;;15.48;10.55;;;;;;;;;;5413558;26;20003;-80
2024/04/19 02:26:42;;;;;;;17.80;11.88;;;;;;;;;;5415139;26;20106;-80
2024/04/19 02:31:53;;;;;;;15.00;11.55;;;;;;;;;;5415199;26;20015;-78
2024/04/19 02:34:19;;;;;;;16.45;9.98;;;;;;;;;;5415484;26;20019;-78
2024/04/19 02:36:45;;;;;;;19.52;11.40;;;;;;;;;;5414885;26;20133;-77
2024/04/19 02:39:11;;;;;;;17.10;10.32;;;;;;;;;;5413258;26;20000;-78
2024/04/19 02:41:38;;;;;;;16.95;10.73;;;;;;;;;;5415578;26;20018;-78
2024/04/19 02:44:04;;;;;;;15.20;9.70;;;;;;;;;;5419064;26;20003;-78
2024/04/19 02:46:30;;;;;;;13.45;9.20;;;;;;;;;;5418955;26;20073;-78
2024/04/19 02:48:56;;;;;;;15.38;8.18;;;;;;;;;;5418901;26;20073;-78
2024/04/19 02:51:22;;;;;;;16.77;10.00;;;;;;;;;;5419446;26;19999;-77
2024/04/19 02:53:48;;;;;;;13.60;7.25;;;;;;;;;;5416953;26;20018;-79
2024/04/19 02:56:14;;;;;;;13.50;8.85;;;;;;;;;;5418726;26;20405;-80
2024/04/19 02:58:41;;;;;;;13.68;8.57;;;;;;;;;;5416744;26;20419;-79
2024/04/19 03:01:07;;;;;;;15.18;9.50;;;;;;;;;;5418680;26;20470;-78
2024/04/19 03:03:33;;;;;;;14.45;9.85;;;;;;;;;;5416484;26;20004;-78
2024/04/19 03:05:59;;;;;;;13.98;9.68;;;;;;;;;;5418805;26;20003;-78
2024/04/19 03:08:26;;;;;;;12.27;9.52;;;;;;;;;;5418731;26;20003;-79
2024/04/19 03:10:52;;;;;;;14.40;8.23;;;;;;;;;;5416777;26;20084;-79
2024/04/19 03:13:18;;;;;;;15.80;9.30;;;;;;;;;;5419074;26;20451;-79
2024/04/19 03:15:44;;;;;;;15.52;10.32;;;;;;;;;;5418317;26;20003;-78
2024/04/19 03:18:10;;;;;;;12.88;8.73;;;;;;;;;;5418787;26;19999;-79
2024/04/19 03:20:36;;;;;;;23.63;13.38;;;;;;;;;;5418295;26;20004;-79
2024/04/19 03:23:02;;;;;;;15.80;11.27;;;;;;;;;;5418601;26;20388;-78
2024/04/19 03:25:28;;;;;;;16.85;12.48;;;;;;;;;;5418392;26;20003;-79
2024/04/19 03:27:54;;;;;;;13.55;10.93;;;;;;;;;;5417273;26;20068;-79
2024/04/19 03:30:25;;;;;;;15.63;11.88;;;;;;;;;;5434090;26;20003;-79
2024/04/19 03:32:51;;;;;;;13.43;8.65;;;;;;;;;;5457121;26;20070;-79
2024/04/19 03:35:17;;;;;;;16.17;11.93;;;;;;;;;;5458154;26;20010;-79
2024/04/19 03:37:43;;;;;;;15.60;10.13;;;;;;;;;;5452003;26;20347;-79
2024/04/19 03:40:09;;;;;;;13.75;11.38;;;;;;;;;;5453954;26;20014;-80
2024/04/19 03:42:45;;;;;;;16.38;11.57;;;;;;;;;;5453576;26;19998;-81
2024/04/19 03:47:56;;;;;;;19.40;13.90;;;;;;;;;;5453975;26;20018;-80
2024/04/19 03:50:22;;;;;;;14.85;11.93;;;;;;;;;;5452221;26;19999;-80
2024/04/19 03:52:48;;;;;;;16.20;13.40;;;;;;;;;;5451967;26;20011;-80
2024/04/19 03:55:14;;;;;;;14.35;9.48;;;;;;;;;;5452419;26;20075;-79
2024/04/19 03:57:40;;;;;;;12.27;9.95;;;;;;;;;;5452234;26;20002;-79
2024/04/19 04:00:07;;;;;;;17.50;12.55;;;;;;;;;;5452492;26;20003;-79
2024/04/19 04:02:33;;;;;;;15.52;13.00;;;;;;;;;;5452193;26;20002;-80
2024/04/19 04:04:59;;;;;;;14.65;12.27;;;;;;;;;;5453997;26;19999;-79
2024/04/19 04:07:25;;;;;;;19.63;14.98;;;;;;;;;;5452076;26;20079;-79
2024/04/19 04:09:52;;;;;;;18.80;15.18;;;;;;;;;;5451955;26;20042;-80
2024/04/19 04:12:18;;;;;;;24.77;15.43;;;;;;;;;;5454192;26;20003;-80
2024/04/19 04:14:44;;;;;;;18.02;14.85;;;;;;;;;;5451926;26;20015;-80
2024/04/19 04:17:10;;;;;;;19.02;14.40;;;;;;;;;;5453590;26;20017;-80
2024/04/19 04:19:37;;;;;;;23.73;17.30;;;;;;;;;;5453587;26;20060;-80
2024/04/19 04:22:03;;;;;;;20.88;15.25;;;;;;;;;;5452309;26;19999;-81
2024/04/19 04:24:29;;;;;;;20.55;17.08;;;;;;;;;;5451626;26;20315;-80
2024/04/19 04:26:58;;;;;;;21.85;17.50;;;;;;;;;;5451456;26;19999;-81
2024/04/19 04:29:27;;;;;;;24.48;17.73;;;;;;;;;;5453977;26;20013;-78
2024/04/19 04:31:53;;;;;;;19.75;16.00;;;;;;;;;;5453003;26;20002;-80
2024/04/19 04:34:19;;;;;;;18.75;15.18;;;;;;;;;;5451652;26;20388;-80
2024/04/19 04:36:45;;;;;;;19.20;15.40;;;;;;;;;;5453272;26;20064;-80
2024/04/19 04:39:11;;;;;;;19.45;15.63;;;;;;;;;;5453463;26;20003;-80
2024/04/19 04:41:39;;;;;;;21.10;16.05;;;;;;;;;;5453607;26;19998;-79
2024/04/19 04:44:10;;;;;;;19.27;14.88;;;;;;;;;;5453483;26;20014;-80
2024/04/19 04:46:36;;;;;;;15.68;13.35;;;;;;;;;;5452529;26;19999;-81
2024/04/19 04:49:04;;;;;;;15.05;12.13;;;;;;;;;;5454366;26;20007;-80
2024/04/19 04:51:30;;;;;;;20.10;16.10;;;;;;;;;;5454348;26;20010;-80
2024/04/19 04:53:56;;;;;;;16.92;13.40;;;;;;;;;;5454625;26;20030;-81
2024/04/19 04:56:22;;;;;;;17.02;14.35;;;;;;;;;;5453079;26;20014;-81
2024/04/19 04:58:48;;;;;;;18.27;13.50;;;;;;;;;;5455320;26;20023;-82
2024/04/19 05:01:14;;;;;;;18.90;13.60;;;;;;;;;;5456109;26;20328;-82
2024/04/19 05:03:40;;;;;;;19.08;15.85;;;;;;;;;;5452363;26;20306;-80
2024/04/19 05:06:06;;;;;;;17.92;13.45;;;;;;;;;;5451366;26;20435;-81
2024/04/19 05:08:32;;;;;;;18.85;15.90;;;;;;;;;;5452725;26;20003;-80
2024/04/19 05:10:58;;;;;;;12.85;9.95;;;;;;;;;;5450644;26;19999;-81
2024/04/19 05:13:26;;;;;;;19.55;13.77;;;;;;;;;;5451086;26;20010;-82
2024/04/19 05:15:52;;;;;;;16.23;12.35;;;;;;;;;;5450368;26;20027;-82
2024/04/19 05:18:18;;;;;;;15.98;11.77;;;;;;;;;;5450766;26;20014;-81
2024/04/19 05:20:48;;;;;;;17.05;12.95;;;;;;;;;;5450196;26;20003;-80
2024/04/19 05:23:14;;;;;;;18.60;14.27;;;;;;;;;;5451237;26;19999;-79
2024/04/19 05:25:40;;;;;;;15.95;13.30;;;;;;;;;;5454189;26;20003;-78
2024/04/19 05:28:06;;;;;;;18.17;13.43;;;;;;;;;;5442925;26;19999;-79
2024/04/19 05:30:33;;;;;;;17.65;14.07;;;;;;;;;;5454588;26;20108;-78
2024/04/19 05:32:59;;;;;;;18.27;14.63;;;;;;;;;;5437995;26;20011;-79
2024/04/19 05:35:28;;;;;;;22.13;17.15;;;;;;;;;;5450960;26;20415;-78
2024/04/19 05:37:55;;;;;;;19.73;14.90;;;;;;;;;;5452666;26;20013;-79
2024/04/19 05:40:22;;;;;;;20.15;16.52;;;;;;;;;;5450288;26;19998;-79
2024/04/19 05:42:48;;;;;;;22.83;16.58;;;;;;;;;;5449789;26;19999;-78
2024/04/19 05:45:14;;;;;;;20.20;15.95;;;;;;;;;;5450077;26;20027;-79
2024/04/19 05:47:40;;;;;;;20.55;14.45;;;;;;;;;;5451445;26;20013;-80
2024/04/19 05:50:08;;;;;;;19.65;13.38;;;;;;;;;;5450284;26;20019;-82
2024/04/19 05:52:34;;;;;;;22.65;14.50;;;;;;;;;;5451039;26;20003;-78
2024/04/19 05:55:00;;;;;;;16.63;12.63;;;;;;;;;;5450575;26;20006;-81
2024/04/19 05:57:26;;;;;;;20.30;14.32;;;;;;;;;;5452213;26;20065;-81
2024/04/19 05:59:54;;;;;;;16.58;13.05;;;;;;;;;;5451882;26;20014;-82
2024/04/19 06:02:20;;;;;;;20.95;14.70;;;;;;;;;;5450433;26;19999;-81
2024/04/19 06:04:46;;;;;;;19.65;13.80;;;;;;;;;;5450120;26;20067;-80
2024/04/19 06:07:12;;;;;;;21.35;13.85;;;;;;;;;;5451892;26;20002;-79
2024/04/19 06:09:38;;;;;;;19.95;13.43;;;;;;;;;;5450026;26;19999;-79
2024/04/19 06:12:04;;;;;;;22.52;13.30;;;;;;;;;;5450223;26;20009;-80
2024/04/19 06:14:30;;;;;;;22.85;13.98;;;;;;;;;;5450148;26;20009;-81
2024/04/19 06:16:56;;;;;;;19.63;12.15;;;;;;;;;;5450690;26;20017;-80
2024/04/19 06:19:22;;;;;;;16.83;9.60;;;;;;;;;;5452109;26;20015;-81
2024/04/19 06:21:48;;;;;;;13.10;8.27;;;;;;;;;;5449595;26;20010;-80
2024/04/19 06:24:17;;;;;;;12.50;7.03;;;;;;;;;;5452044;26;20003;-80
2024/04/19 06:26:43;;;;;;;10.13;5.70;;;;;;;;;;5449586;26;19999;-79
2024/04/19 06:29:09;;;;;;;15.15;6.22;;;;;;;;;;5451870;26;20002;-79
2024/04/19 06:31:35;;;;;;;17.35;5.55;;;;;;;;;;5449459;26;20370;-79
2024/04/19 06:34:01;;;;;;;13.30;5.43;;;;;;;;;;5449294;26;20010;-80
2024/04/19 06:36:27;;;;;;;15.02;5.60;;;;;;;;;;5449596;26;20009;-79
2024/04/19 06:38:53;;;;;;;15.23;5.90;;;;;;;;;;5450968;26;20015;-79
2024/04/19 06:41:19;;;;;;;16.83;6.78;;;;;;;;;;5449690;26;20002;-79
2024/04/19 06:43:45;;;;;;;17.05;6.30;;;;;;;;;;5449006;26;20034;-79
2024/04/19 06:46:11;;;;;;;15.27;5.20;;;;;;;;;;5449663;26;20056;-79
2024/04/19 06:48:37;;;;;;;18.13;6.00;;;;;;;;;;5449230;26;20014;-79
2024/04/19 06:51:03;;;;;;;22.15;6.70;;;;;;;;;;5449280;26;20003;-79
2024/04/19 06:53:29;;;;;;;14.18;6.35;;;;;;;;;;5449838;26;20014;-80
2024/04/19 06:55:55;;;;;;;23.25;6.07;;;;;;;;;;5451287;26;20135;-79
2024/04/19 06:58:21;;;;;;;17.20;6.85;;;;;;;;;;5449372;26;20010;-79
2024/04/19 07:00:49;;;;;;;13.82;6.05;;;;;;;;;;5450815;26;20036;-79
2024/04/19 07:03:15;;;;;;;19.02;6.65;;;;;;;;;;5451421;26;20044;-79
2024/04/19 07:05:42;;;;;;;17.42;6.80;;;;;;;;;;5449047;26;19998;-79
2024/04/19 07:08:08;;;;;;;20.27;6.40;;;;;;;;;;5449568;26;20003;-78
2024/04/19 07:10:38;;;;;;;16.70;6.10;;;;;;;;;;5451559;26;20007;-80
2024/04/19 07:13:04;;;;;;;20.20;6.80;;;;;;;;;;5449323;26;20010;-79
2024/04/19 07:15:30;;;;;;;18.45;5.68;;;;;;;;;;5449153;26;20014;-79
2024/04/19 07:17:56;;;;;;;15.35;5.43;;;;;;;;;;5448804;26;20003;-79
2024/04/19 07:20:22;;;;;;;18.30;6.15;;;;;;;;;;5449882;26;20014;-80
2024/04/19 07:22:48;;;;;;;17.20;5.65;;;;;;;;;;5456983;26;20246;-80
2024/04/19 07:25:14;;;;;;;22.73;5.68;;;;;;;;;;5441418;26;20049;-81
2024/04/19 07:27:40;;;;;;;18.33;6.07;;;;;;;;;;5459459;26;20032;-80
2024/04/19 07:30:09;;;;;;;18.65;6.18;;;;;;;;;;5450468;26;19999;-80
2024/04/19 07:32:35;;;;;;;21.13;6.57;;;;;;;;;;5458285;26;20010;-80
2024/04/19 07:35:01;;;;;;;18.95;6.47;;;;;;;;;;5453938;26;20327;-80
2024/04/19 07:37:27;;;;;;;17.73;5.95;;;;;;;;;;5452217;26;20031;-80
2024/04/19 07:39:53;;;;;;;17.13;5.97;;;;;;;;;;5451865;26;20013;-80
2024/04/19 07:42:19;;;;;;;16.15;5.35;;;;;;;;;;5452576;26;20019;-80
2024/04/19 07:44:45;;;;;;;20.45;5.60;;;;;;;;;;5451774;26;20071;-81
2024/04/19 07:47:11;;;;;;;20.38;5.50;;;;;;;;;;5452178;26;20362;-81
2024/04/19 07:49:37;;;;;;;23.60;6.28;;;;;;;;;;5452245;26;19998;-81
2024/04/19 07:52:03;;;;;;;19.33;8.57;;;;;;;;;;5454712;26;19998;-82
2024/04/19 07:54:29;;;;;;;26.38;7.15;;;;;;;;;;5452222;26;20014;-83
2024/04/19 07:56:55;;;;;;;14.40;4.72;;;;;;;;;;5452098;26;19999;-83
2024/04/19 07:59:22;;;;;;;12.88;3.03;;;;;;;;;;5454386;26;20102;-82
2024/04/19 08:01:48;;;;;;;8.38;2.30;;;;;;;;;;5453922;26;20336;-82
2024/04/19 08:04:14;;;;;;;14.52;2.58;;;;;;;;;;5452340;26;20006;-81
2024/04/19 08:06:40;;;;;;;5.55;1.58;;;;;;;;;;5454247;26;20010;-82
2024/04/19 08:09:06;;;;;;;6.05;1.27;;;;;;;;;;5451983;26;20439;-81
2024/04/19 08:11:32;;;;;;;7.53;1.90;;;;;;;;;;5453722;26;20449;-82
2024/04/19 08:13:58;;;;;;;7.13;1.17;;;;;;;;;;5452240;26;20314;-83
2024/04/19 08:16:25;;;;;;;8.45;1.50;;;;;;;;;;5452040;26;20003;-82
2024/04/19 08:18:52;;;;;;;7.90;1.70;;;;;;;;;;5453420;26;20003;-82
2024/04/19 08:21:18;;;;;;;7.70;1.60;;;;;;;;;;5451805;26;20013;-80
2024/04/19 08:23:44;;;;;;;5.95;1.98;;;;;;;;;;5451537;26;20442;-82
2024/04/19 08:26:10;;;;;;;8.98;2.33;;;;;;;;;;5451864;26;20442;-81
2024/04/19 08:28:36;;;;;;;7.90;2.10;;;;;;;;;;5451761;26;20006;-82
2024/04/19 08:31:02;;;;;;;9.88;2.72;;;;;;;;;;5451675;26;20067;-81
2024/04/19 08:33:28;;;;;;;10.90;2.08;;;;;;;;;;5453489;26;20009;-81
2024/04/19 08:35:55;;;;;;;9.20;2.42;;;;;;;;;;5451095;26;20443;-81
2024/04/19 08:38:21;;;;;;;12.55;2.10;;;;;;;;;;5450382;26;20068;-81
2024/04/19 08:41:00;;;;;;;10.65;2.58;;;;;;;;;;5451135;26;20011;-81
2024/04/19 08:43:27;;;;;;;10.20;3.10;;;;;;;;;;5451580;26;20006;-83
2024/04/19 08:45:54;;;;;;;7.50;1.80;;;;;;;;;;5450932;26;20018;-82
2024/04/19 08:48:20;;;;;;;6.68;2.00;;;;;;;;;;5451611;26;20006;-82
2024/04/19 08:50:47;;;;;;;6.97;1.60;;;;;;;;;;5451057;26;20000;-82
2024/04/19 08:53:14;;;;;;;6.88;2.15;;;;;;;;;;5453343;26;20017;-82
2024/04/19 08:55:41;;;;;;;7.60;2.50;;;;;;;;;;5421479;26;20430;-80
2024/04/19 08:58:07;;;;;;;8.82;2.10;;;;;;;;;;5451211;26;20072;-81
2024/04/19 09:00:33;;;;;;;8.38;2.30;;;;;;;;;;5453233;26;19999;-81
2024/04/19 09:03:00;;;;;;;7.43;1.90;;;;;;;;;;5451126;26;20011;-81
2024/04/19 09:05:26;;;;;;;10.45;1.65;;;;;;;;;;5451175;26;20003;-81
2024/04/19 09:07:52;;;;;;;5.20;1.10;;;;;;;;;;5450937;26;20002;-81
2024/04/19 09:10:21;;;;;;;4.63;1.15;;;;;;;;;;5453021;26;20010;-81
2024/04/19 09:12:47;;;;;;;6.53;1.70;;;;;;;;;;5453053;26;20351;-80
2024/04/19 09:15:16;;;;;;;4.80;1.60;;;;;;;;;;5453170;26;19999;-80
2024/04/19 09:17:42;;;;;;;6.63;1.90;;;;;;;;;;5456100;26;20071;-80
2024/04/19 09:20:08;;;;;;;10.10;1.85;;;;;;;;;;5462994;26;20011;-81
2024/04/19 09:22:34;;;;;;;12.80;1.90;;;;;;;;;;5440753;26;20009;-83
2024/04/19 09:25:00;;;;;;;7.78;1.50;;;;;;;;;;5434850;26;19999;-83
2024/04/19 09:27:27;;;;;;;3.20;1.10;;;;;;;;;;5429815;26;19999;-83
2024/04/19 09:29:53;;;;;;;2.78;0.80;;;;;;;;;;5423073;26;20054;-84
2024/04/19 09:32:23;;;;;;;1.67;0.80;;;;;;;;;;5416953;26;19999;-83
2024/04/19 09:34:49;;;;;;;6.95;1.25;;;;;;;;;;5414909;26;20084;-83
2024/04/19 09:37:16;;;;;;;4.35;0.80;;;;;;;;;;5415393;26;20004;-82
2024/04/19 09:39:42;;;;;;;10.05;1.52;;;;;;;;;;5415207;26;20363;-82
2024/04/19 09:42:08;;;;;;;3.33;0.82;;;;;;;;;;5416194;26;20451;-81
2024/04/19 09:44:36;;;;;;;4.68;1.30;;;;;;;;;;5414590;26;20015;-82
2024/04/19 09:47:03;;;;;;;3.58;1.10;;;;;;;;;;5416226;26;20031;-81
2024/04/19 09:49:30;;;;;;;4.63;1.10;;;;;;;;;;5414395;26;20040;-81
2024/04/19 09:51:56;;;;;;;2.97;1.00;;;;;;;;;;5414726;26;20014;-82
2024/04/19 09:54:26;;;;;;;1.83;1.08;;;;;;;;;;5414672;26;20098;-82
2024/04/19 09:56:57;;;;;;;3.83;0.93;;;;;;;;;;5414475;26;20019;-81
2024/04/19 09:59:24;;;;;;;;;;;;;;;;;;5417318;26;20423;-81
2024/04/19 10:01:51;;;;;;;2.83;0.70;;;;;;;;;;5414351;26;19925;-81
2024/04/19 10:04:17;;;;;;;3.42;0.73;;;;;;;;;;5414812;26;19999;-80
2024/04/19 10:06:44;;;;;;;2.15;0.80;;;;;;;;;;5414543;26;20014;-82
2024/04/19 10:09:14;;;;;;;2.35;0.68;;;;;;;;;;5414559;26;20010;-81
2024/04/19 10:11:44;;;;;;;1.58;0.55;;;;;;;;;;5414528;26;20010;-81
2024/04/19 10:14:10;;;;;;;2.28;0.60;;;;;;;;;;5414082;26;20014;-81
2024/04/19 10:16:38;;;;;;;3.33;0.60;;;;;;;;;;5414591;26;20093;-81
2024/04/19 10:19:04;;;;;;;2.38;0.80;;;;;;;;;;5414067;26;20427;-81
2024/04/19 10:21:32;;;;;;;23.13;11.70;;;;;;;;;;5414328;26;20000;-82
2024/04/19 10:23:59;;;;;;;2.78;0.65;;;;;;;;;;5415980;26;20000;-81
2024/04/19 10:26:25;;;;;;;3.03;0.57;;;;;;;;;;5414471;26;20451;-81
2024/04/19 10:29:01;;;;;;;3.85;0.73;;;;;;;;;;5413786;26;20000;-81
2024/04/19 10:31:29;;;;;;;1.55;0.57;;;;;;;;;;5414301;26;20003;-81
2024/04/19 10:33:55;;;;;;;6.70;1.00;;;;;;;;;;5415586;26;20451;-81
2024/04/19 10:36:28;;;;;;;3.83;0.70;;;;;;;;;;5416245;26;20010;-81
2024/04/19 10:38:54;;;;;;;3.90;0.82;;;;;;;;;;5413817;26;19999;-80
2024/04/19 10:41:20;;;;;;;2.90;0.82;;;;;;;;;;5413821;26;20077;-81
2024/04/19 10:43:46;;;;;;;1.65;0.50;;;;;;;;;;5413460;26;20007;-81
2024/04/19 10:46:14;;;;;;;2.67;0.70;;;;;;;;;;5413438;26;19999;-81
2024/04/19 10:48:41;;;;;;;3.40;1.00;;;;;;;;;;5415182;26;20032;-81
2024/04/19 10:51:13;;;;;;;2.72;0.68;;;;;;;;;;5413472;26;20003;-82
2024/04/19 10:53:39;;;;;;;1.75;0.60;;;;;;;;;;5413880;26;20004;-81
2024/04/19 10:56:05;;;;;;;2.63;0.90;;;;;;;;;;5413461;26;19999;-83
2024/04/19 10:58:32;;;;;;;5.20;1.13;;;;;;;;;;5413812;26;20137;-83
2024/04/19 11:00:59;;;;;;;2.50;0.60;;;;;;;;;;5415685;26;20004;-84
2024/04/19 11:03:26;;;;;;;5.32;0.63;;;;;;;;;;5417857;26;20006;-85
2024/04/19 11:05:52;;;;;;;2.25;0.68;;;;;;;;;;5417610;26;20004;-85
2024/04/19 11:08:19;;;;;;;2.00;0.57;;;;;;;;;;5417854;26;20006;-83
2024/04/19 11:10:45;;;;;;;5.90;0.80;;;;;;;;;;5417305;26;20446;-83
2024/04/19 11:13:11;;;;;;;4.85;0.65;;;;;;;;;;5417425;26;20015;-84
2024/04/19 11:15:37;;;;;;;4.45;0.80;;;;;;;;;;5419627;26;20000;-82
2024/04/19 11:18:06;;;;;;;5.55;0.77;;;;;;;;;;5417878;26;20137;-83
2024/04/19 11:20:32;;;;;;;5.28;1.27;;;;;;;;;;5423678;26;20011;-84
2024/04/19 11:23:01;;;;;;;3.20;0.70;;;;;;;;;;5436557;26;20006;-83
2024/04/19 11:25:28;;;;;;;3.35;1.50;;;;;;;;;;5458040;26;20010;-81
2024/04/19 11:27:55;;;;;;;6.00;1.13;;;;;;;;;;5453455;26;20011;-83
2024/04/19 11:30:22;;;;;;;5.28;1.38;;;;;;;;;;5424440;26;20093;-81
2024/04/19 11:32:51;;;;;;;5.28;0.98;;;;;;;;;;5420342;26;19999;-83
2024/04/19 11:35:20;;;;;;;4.63;1.30;;;;;;;;;;5419113;26;20000;-83
2024/04/19 11:37:49;;;;;;;3.00;0.90;;;;;;;;;;5417165;26;20050;-82
2024/04/19 11:40:22;;;;;;;6.50;1.70;;;;;;;;;;5416558;26;20000;-82
2024/04/19 11:42:50;;;;;;;2.55;0.68;;;;;;;;;;5416569;26;20003;-83
2024/04/19 11:45:17;;;;;;;3.85;1.08;;;;;;;;;;5416837;26;20011;-84
2024/04/19 11:47:44;;;;;;;7.45;2.08;;;;;;;;;;5416759;26;20000;-84
2024/04/19 11:50:10;;;;;;;4.32;0.90;;;;;;;;;;5416395;26;20057;-84
2024/04/19 11:52:36;;;;;;;2.78;0.70;;;;;;;;;;5416454;26;20011;-84
2024/04/19 11:55:02;;;;;;;3.20;0.75;;;;;;;;;;5416545;26;20011;-84
2024/04/19 11:57:28;;;;;;;2.53;0.80;;;;;;;;;;5416505;26;19999;-84
2024/04/19 11:59:54;;;;;;;2.33;1.02;;;;;;;;;;5416293;26;20439;-84
2024/04/19 12:02:20;;;;;;;5.47;1.00;;;;;;;;;;5416435;26;19999;-84
2024/04/19 12:04:46;;;;;;;4.45;0.95;;;;;;;;;;5416367;26;20440;-83
2024/04/19 12:07:12;;;;;;;3.50;0.70;;;;;;;;;;5417938;26;20528;-83
2024/04/19 12:09:39;;;;;;;4.68;0.98;;;;;;;;;;5418236;26;20000;-83
2024/04/19 12:12:06;;;;;;;3.28;1.08;;;;;;;;;;5418319;26;20007;-83
2024/04/19 12:14:35;;;;;;;7.03;1.20;;;;;;;;;;5415219;26;20004;-83
2024/04/19 12:17:07;;;;;;;6.32;1.10;;;;;;;;;;5415733;26;20008;-83
2024/04/19 12:19:33;;;;;;;7.35;1.90;;;;;;;;;;5417166;26;20014;-81
2024/04/19 12:21:59;;;;;;;4.25;0.80;;;;;;;;;;5416282;26;20004;-82
2024/04/19 12:24:26;;;;;;;6.30;0.93;;;;;;;;;;5418451;26;19999;-84
2024/04/19 12:26:52;;;;;;;5.22;1.33;;;;;;;;;;5416165;26;20093;-84
2024/04/19 12:29:18;;;;;;;2.40;0.70;;;;;;;;;;5416492;26;20432;-85
2024/04/19 12:31:44;;;;;;;4.32;0.90;;;;;;;;;;5416516;26;20525;-85
2024/04/19 12:34:10;;;;;;;7.60;1.00;;;;;;;;;;5416274;26;19999;-85
2024/04/19 12:36:36;;;;;;;7.20;1.30;;;;;;;;;;5386933;26;19999;-86
2024/04/19 12:39:02;;;;;;;5.43;1.25;;;;;;;;;;5416707;26;20343;-85
2024/04/19 12:41:31;;;;;;;9.40;1.65;;;;;;;;;;5415814;26;20000;-85
2024/04/19 12:44:01;;;;;;;7.88;2.15;;;;;;;;;;5415997;26;20466;-85
2024/04/19 12:46:27;;;;;;;6.53;1.30;;;;;;;;;;5417536;26;20014;-84
2024/04/19 12:48:58;;;;;;;7.30;2.20;;;;;;;;;;5415197;26;20004;-84
2024/04/19 12:51:24;;;;;;;;;;;;;;;;;;5416930;26;19996;-84
2024/04/19 12:53:50;;;;;;;5.72;1.15;;;;;;;;;;5415991;26;19925;-85
2024/04/19 12:56:16;;;;;;;12.40;4.53;;;;;;;;;;5415978;26;19999;-85
2024/04/19 12:58:42;;;;;;;4.63;0.90;;;;;;;;;;5415639;26;20011;-87
2024/04/19 13:01:08;;;;;;;56.35;20.98;;;;;;;;;;5416510;26;20010;-85
2024/04/19 13:03:34;;;;;;;5.03;1.70;;;;;;;;;;5417036;26;19996;-84
2024/04/19 13:06:01;;;;;;;10.15;1.77;;;;;;;;;;5416312;26;20007;-84
2024/04/19 13:08:27;;;;;;;7.72;1.92;;;;;;;;;;5415858;26;20010;-85
2024/04/19 13:10:53;;;;;;;6.10;1.38;;;;;;;;;;5417384;26;19999;-84
2024/04/19 13:13:19;;;;;;;4.45;1.40;;;;;;;;;;5416215;26;20014;-84
2024/04/19 13:15:45;;;;;;;7.93;1.70;;;;;;;;;;5415708;26;20000;-83
2024/04/19 13:18:11;;;;;;;17.48;5.22;;;;;;;;;;5418191;26;20014;-84
2024/04/19 13:20:37;;;;;;;9.93;3.50;;;;;;;;;;5419203;26;20014;-83
2024/04/19 13:23:06;;;;;;;6.07;1.45;;;;;;;;;;5429635;26;20007;-83
2024/04/19 13:25:33;;;;;;;9.20;3.20;;;;;;;;;;5446506;26;19999;-82
2024/04/19 13:27:59;;;;;;;9.30;2.20;;;;;;;;;;5429486;26;19992;-84
2024/04/19 13:30:25;;;;;;;14.98;2.85;;;;;;;;;;5438485;26;19995;-84
2024/04/19 13:32:51;;;;;;;13.27;3.90;;;;;;;;;;5463807;26;20011;-83
2024/04/19 13:35:17;;;;;;;9.07;2.75;;;;;;;;;;5452969;26;20431;-83
2024/04/19 13:37:43;;;;;;;12.05;2.20;;;;;;;;;;5452440;26;20075;-84
2024/04/19 13:40:09;;;;;;;14.13;3.15;;;;;;;;;;5451126;26;20003;-82
2024/04/19 13:42:35;;;;;;;10.32;3.42;;;;;;;;;;5453358;26;20009;-82
2024/04/19 13:45:01;;;;;;;5.55;1.58;;;;;;;;;;5452201;26;20013;-81
2024/04/19 13:47:27;;;;;;;9.50;3.08;;;;;;;;;;5452234;26;20070;-81
2024/04/19 13:49:53;;;;;;;9.90;2.25;;;;;;;;;;5450690;26;20017;-82
2024/04/19 13:52:19;;;;;;;11.23;2.58;;;;;;;;;;5450715;26;19999;-83
2024/04/19 13:54:45;;;;;;;13.00;2.35;;;;;;;;;;5450700;26;20434;-83
2024/04/19 13:57:11;;;;;;;11.48;2.28;;;;;;;;;;5450381;26;20044;-82
2024/04/19 13:59:37;;;;;;;11.05;2.38;;;;;;;;;;5450730;26;20431;-83
2024/04/19 14:02:04;;;;;;;9.63;2.92;;;;;;;;;;5450180;26;19999;-82
2024/04/19 14:04:30;;;;;;;14.95;2.95;;;;;;;;;;5452372;26;20005;-81
2024/04/19 14:06:56;;;;;;;10.82;2.85;;;;;;;;;;5450313;26;19999;-82
2024/04/19 14:09:22;;;;;;;13.70;3.75;;;;;;;;;;5452382;26;20034;-82
2024/04/19 14:11:48;;;;;;;9.82;2.30;;;;;;;;;;5450597;26;20014;-82
2024/04/19 14:14:14;;;;;;;12.20;2.42;;;;;;;;;;5450029;26;20038;-82
2024/04/19 14:16:40;;;;;;;9.82;1.90;;;;;;;;;;5450393;26;20022;-83
2024/04/19 14:19:06;;;;;;;15.15;2.33;;;;;;;;;;5452049;26;20010;-83
2024/04/19 14:21:32;;;;;;;11.23;2.97;;;;;;;;;;5450210;26;20002;-83
2024/04/19 14:23:58;;;;;;;9.70;1.90;;;;;;;;;;5450079;26;20443;-81
2024/04/19 14:26:24;;;;;;;13.48;2.72;;;;;;;;;;5449963;26;20472;-81
2024/04/19 14:28:50;;;;;;;11.75;2.33;;;;;;;;;;5451795;26;19999;-83
2024/04/19 14:31:16;;;;;;;16.20;5.93;;;;;;;;;;5450040;26;20017;-83
2024/04/19 14:33:42;;;;;;;17.38;2.95;;;;;;;;;;5450102;26;20006;-83